Time;durP1;ratioP1;P1;durP2;ratioP2;P2;SDS_P1;SDS_P2;PMS_P1;PMS_P2;Temp;Humidity;BMP_temperature;BMP_pressure;BME280_temperature;BME280_humidity;BME280_pressure;Samples;Min_cycle;Max_cycle;Signal;HPM_P1;HPM_P2
2023/04/27 00:01:18;;;;;;;10.13;3.80;;;6.70;99.90;;;;;;5078627;28;20322;-58
2023/04/27 00:03:45;;;;;;;8.47;4.37;;;6.70;99.90;;;;;;5060940;28;20368;-58
2023/04/27 00:06:12;;;;;;;7.30;4.20;;;6.70;99.90;;;;;;5061477;28;20210;-59
2023/04/27 00:08:39;;;;;;;7.57;4.70;;;6.80;99.90;;;;;;5078894;28;20256;-58
2023/04/27 00:11:06;;;;;;;6.83;4.10;;;6.80;99.90;;;;;;5060733;28;20212;-58
2023/04/27 00:13:33;;;;;;;9.00;3.90;;;6.70;99.90;;;;;;5078594;28;20217;-58
2023/04/27 00:16:02;;;;;;;7.13;4.33;;;6.60;99.90;;;;;;5078262;28;20291;-58
2023/04/27 00:18:30;;;;;;;6.20;4.00;;;6.60;99.90;;;;;;5078503;28;20598;-59
2023/04/27 00:20:57;;;;;;;7.83;4.20;;;6.50;99.90;;;;;;5078026;28;20205;-60
2023/04/27 00:23:25;;;;;;;6.73;4.33;;;6.50;99.90;;;;;;5080785;28;20199;-58
2023/04/27 00:25:52;;;;;;;5.73;4.17;;;6.60;99.90;;;;;;5055162;28;20215;-58
2023/04/27 00:28:19;;;;;;;7.87;3.93;;;6.50;99.90;;;;;;5048968;28;20209;-58
2023/04/27 00:30:47;;;;;;;5.70;3.93;;;6.40;99.90;;;;;;5063685;28;20644;-58
2023/04/27 00:33:15;;;;;;;5.97;3.60;;;6.40;99.90;;;;;;5082681;28;20283;-58
2023/04/27 00:35:42;;;;;;;8.30;3.73;;;6.40;99.90;;;;;;5082453;28;20217;-59
2023/04/27 00:38:10;;;;;;;5.20;3.93;;;6.50;99.90;;;;;;5081128;28;20260;-58
2023/04/27 00:40:38;;;;;;;8.63;4.60;;;6.50;99.90;;;;;;5082844;28;20208;-58
2023/04/27 00:43:05;;;;;;;5.03;4.00;;;6.40;99.90;;;;;;5083265;28;20316;-58
2023/04/27 00:45:39;;;;;;;5.20;3.73;;;6.40;99.90;;;;;;5064113;28;20251;-58
2023/04/27 00:48:06;;;;;;;6.80;4.30;;;6.40;99.90;;;;;;5082577;28;20298;-58
2023/04/27 00:50:33;;;;;;;6.13;3.80;;;6.30;99.90;;;;;;5081805;28;20623;-59
2023/04/27 00:53:01;;;;;;;5.43;4.33;;;6.20;99.90;;;;;;5082187;28;20233;-58
2023/04/27 00:55:28;;;;;;;5.70;3.30;;;6.20;99.90;;;;;;5064755;28;20196;-58
2023/04/27 00:57:55;;;;;;;7.37;3.87;;;6.20;99.90;;;;;;5064500;28;20202;-59
2023/04/27 01:00:22;;;;;;;7.30;4.47;;;6.20;99.90;;;;;;5081766;28;20311;-59
2023/04/27 01:02:50;;;;;;;5.97;3.83;;;6.10;99.90;;;;;;5070923;28;20664;-58
2023/04/27 01:05:18;;;;;;;7.60;4.00;;;6.10;99.90;;;;;;5048784;28;20638;-59
2023/04/27 01:07:45;;;;;;;6.27;3.97;;;6.10;99.90;;;;;;5082850;28;20683;-58
2023/04/27 01:10:11;;;;;;;5.40;3.90;;;6.10;99.90;;;;;;5082364;28;20215;-58
2023/04/27 01:12:38;;;;;;;4.93;3.93;;;6.10;99.90;;;;;;5070900;28;20325;-58
2023/04/27 01:15:06;;;;;;;5.93;4.33;;;6.00;99.90;;;;;;5070963;28;20198;-59
2023/04/27 01:17:33;;;;;;;7.57;3.60;;;6.00;99.90;;;;;;5082290;28;20562;-58
2023/04/27 01:20:01;;;;;;;7.07;3.97;;;5.90;99.90;;;;;;5047176;28;20238;-63
2023/04/27 01:22:28;;;;;;;7.93;3.90;;;6.00;99.90;;;;;;5080875;28;20249;-64
2023/04/27 01:24:55;;;;;;;7.20;3.73;;;6.00;99.90;;;;;;5080976;28;20299;-58
2023/04/27 01:27:22;;;;;;;8.00;3.77;;;5.90;99.90;;;;;;5047527;28;20305;-58
2023/04/27 01:29:49;;;;;;;7.17;3.87;;;6.00;99.90;;;;;;5063763;28;20287;-58
2023/04/27 01:32:16;;;;;;;5.27;3.50;;;6.00;99.90;;;;;;5064023;28;20205;-58
2023/04/27 01:34:43;;;;;;;7.00;3.63;;;6.10;99.90;;;;;;5062088;28;20231;-58
2023/04/27 01:37:10;;;;;;;7.10;4.13;;;6.00;99.90;;;;;;5063968;28;20207;-58
2023/04/27 01:39:37;;;;;;;11.97;3.97;;;6.00;1.00;;;;;;5082143;28;20614;-58
2023/04/27 01:42:04;;;;;;;10.53;4.60;;;5.90;1.00;;;;;;5081133;28;20290;-63
2023/04/27 01:44:31;;;;;;;5.77;3.77;;;6.00;99.90;;;;;;5063340;28;20301;-58
2023/04/27 01:46:58;;;;;;;7.63;4.20;;;6.00;99.90;;;;;;5055309;28;20630;-58
2023/04/27 01:49:25;;;;;;;8.40;4.00;;;6.00;99.90;;;;;;5081825;28;20257;-59
2023/04/27 01:51:51;;;;;;;5.00;3.53;;;6.00;99.90;;;;;;5080557;28;20306;-58
2023/04/27 01:54:18;;;;;;;7.93;3.47;;;5.90;99.90;;;;;;5079805;28;20211;-59
2023/04/27 01:56:45;;;;;;;6.87;3.90;;;5.90;99.90;;;;;;5081040;28;20286;-58
2023/04/27 01:59:12;;;;;;;6.30;4.40;;;5.90;99.90;;;;;;5079719;28;20296;-62
2023/04/27 02:01:39;;;;;;;5.37;3.13;;;5.90;1.00;;;;;;5082143;28;20207;-59
2023/04/27 02:04:06;;;;;;;6.63;4.07;;;5.90;99.90;;;;;;5080661;28;20238;-58
2023/04/27 02:06:34;;;;;;;9.67;3.47;;;5.90;99.90;;;;;;5079444;28;20211;-58
2023/04/27 02:09:01;;;;;;;5.20;3.77;;;5.90;99.90;;;;;;5080496;28;20631;-58
2023/04/27 02:11:28;;;;;;;6.37;3.60;;;6.00;99.90;;;;;;5081421;28;20247;-58
2023/04/27 02:13:54;;;;;;;9.93;4.53;;;5.90;99.90;;;;;;5080447;28;20318;-59
2023/04/27 02:16:21;;;;;;;7.70;3.17;;;6.00;99.90;;;;;;5062934;28;20199;-59
2023/04/27 02:18:48;;;;;;;5.67;3.87;;;5.90;99.90;;;;;;5081027;28;20227;-59
2023/04/27 02:21:15;;;;;;;8.53;3.33;;;5.80;1.00;;;;;;5079954;28;20199;-58
2023/04/27 02:23:42;;;;;;;6.27;3.97;;;5.80;1.00;;;;;;5081045;28;20261;-58
2023/04/27 02:26:19;;;;;;;7.60;3.57;;;5.80;1.00;;;;;;5081448;28;20240;-58
2023/04/27 02:28:47;;;;;;;7.50;3.23;;;5.80;1.00;;;;;;5069876;28;20218;-58
2023/04/27 02:31:14;;;;;;;3.90;2.97;;;5.90;99.90;;;;;;5080502;28;20202;-58
2023/04/27 02:33:41;;;;;;;6.90;3.37;;;5.90;99.90;;;;;;5080580;28;20235;-58
2023/04/27 02:36:08;;;;;;;5.63;3.70;;;5.80;99.90;;;;;;5079027;28;20238;-59
2023/04/27 02:38:35;;;;;;;5.80;3.20;;;5.70;1.00;;;;;;5080486;28;20200;-60
2023/04/27 02:41:02;;;;;;;7.23;4.40;;;5.60;1.00;;;;;;5079621;28;20242;-59
2023/04/27 02:43:29;;;;;;;7.43;3.40;;;5.60;1.00;;;;;;5062886;28;20234;-58
2023/04/27 02:45:56;;;;;;;6.50;3.60;;;5.60;1.00;;;;;;5046130;28;20636;-58
2023/04/27 02:48:23;;;;;;;4.33;3.20;;;5.60;1.00;;;;;;5076229;28;20306;-58
2023/04/27 02:50:50;;;;;;;6.87;4.07;;;5.60;1.00;;;;;;5063201;28;20297;-59
2023/04/27 02:53:17;;;;;;;7.10;3.60;;;5.60;1.00;;;;;;5080306;28;20640;-58
2023/04/27 02:55:48;;;;;;;7.83;3.93;;;5.60;1.00;;;;;;5068832;28;20245;-63
2023/04/27 02:58:16;;;;;;;4.80;3.47;;;5.60;1.00;;;;;;5076874;28;20205;-58
2023/04/27 03:00:44;;;;;;;7.63;3.70;;;5.60;1.00;;;;;;5080949;28;20206;-58
2023/04/27 03:03:11;;;;;;;5.30;3.90;;;5.60;1.00;;;;;;5078862;28;20336;-58
2023/04/27 03:05:38;;;;;;;5.77;3.00;;;5.60;1.00;;;;;;5080147;28;20198;-58
2023/04/27 03:08:05;;;;;;;6.73;3.80;;;5.50;1.00;;;;;;5079855;28;20203;-58
2023/04/27 03:10:31;;;;;;;8.53;3.87;;;5.50;1.00;;;;;;5080088;28;20237;-61
2023/04/27 03:12:58;;;;;;;4.77;3.40;;;5.50;1.00;;;;;;5080404;28;20212;-58
2023/04/27 03:15:25;;;;;;;5.27;3.27;;;5.40;1.00;;;;;;5063467;28;20592;-58
2023/04/27 03:17:52;;;;;;;4.27;3.73;;;5.40;1.00;;;;;;5079702;28;20789;-58
2023/04/27 03:20:21;;;;;;;8.03;4.20;;;5.40;1.00;;;;;;5079093;28;20207;-58
2023/04/27 03:22:48;;;;;;;6.63;4.13;;;5.30;1.00;;;;;;5078867;28;20706;-58
2023/04/27 03:25:15;;;;;;;5.77;4.77;;;5.30;1.00;;;;;;5062012;28;20206;-58
2023/04/27 03:27:42;;;;;;;8.67;4.03;;;5.30;1.00;;;;;;5080297;28;20549;-58
2023/04/27 03:30:10;;;;;;;5.07;3.50;;;5.30;1.00;;;;;;5062035;28;20217;-58
2023/04/27 03:32:37;;;;;;;6.83;3.47;;;5.30;1.00;;;;;;5062647;28;20216;-58
2023/04/27 03:35:04;;;;;;;9.03;3.70;;;5.30;1.00;;;;;;5079647;28;20546;-60
2023/04/27 03:37:31;;;;;;;5.00;3.90;;;5.30;1.00;;;;;;5076497;28;20207;-58
2023/04/27 03:39:58;;;;;;;7.50;3.70;;;5.30;1.00;;;;;;5079246;28;20221;-58
2023/04/27 03:42:25;;;;;;;6.50;4.33;;;5.30;1.00;;;;;;5062415;28;20233;-58
2023/04/27 03:44:52;;;;;;;8.53;4.00;;;5.20;1.00;;;;;;5061749;28;20212;-58
2023/04/27 03:47:19;;;;;;;7.77;3.77;;;5.20;1.00;;;;;;5079922;28;20619;-58
2023/04/27 03:49:46;;;;;;;6.33;3.77;;;5.20;1.00;;;;;;5062061;28;20204;-58
2023/04/27 03:52:13;;;;;;;8.47;4.27;;;5.20;1.00;;;;;;5079524;28;20217;-58
2023/04/27 03:54:40;;;;;;;5.57;3.40;;;5.20;1.00;;;;;;5078797;28;20579;-58
2023/04/27 03:57:07;;;;;;;6.20;3.80;;;5.20;1.00;;;;;;5081502;28;20289;-58
2023/04/27 03:59:34;;;;;;;9.47;3.60;;;5.10;1.00;;;;;;5085711;28;20203;-58
2023/04/27 04:02:02;;;;;;;8.87;3.57;;;5.10;1.00;;;;;;5068907;28;20267;-58
2023/04/27 04:04:29;;;;;;;5.60;3.67;;;5.00;1.00;;;;;;5069787;28;20672;-58
2023/04/27 04:06:57;;;;;;;6.03;3.90;;;5.00;1.00;;;;;;5085442;28;20285;-58
2023/04/27 04:09:24;;;;;;;5.20;3.60;;;5.00;1.00;;;;;;5058356;28;20685;-58
2023/04/27 04:11:51;;;;;;;6.40;3.93;;;5.00;1.00;;;;;;5085423;28;20305;-58
2023/04/27 04:14:18;;;;;;;9.33;4.77;;;4.90;1.00;;;;;;5067642;28;20636;-58
2023/04/27 04:16:45;;;;;;;6.77;4.27;;;4.90;19.90;;;;;;5067673;28;20202;-59
2023/04/27 04:19:12;;;;;;;6.83;4.47;;;4.90;99.90;;;;;;5074141;28;20336;-58
2023/04/27 04:21:39;;;;;;;7.70;4.23;;;4.90;69.10;;;;;;5068068;28;20229;-58
2023/04/27 04:24:06;;;;;;;6.17;4.53;;;4.90;18.60;;;;;;5079212;28;20235;-58
2023/04/27 04:26:34;;;;;;;9.00;4.40;;;5.00;99.90;;;;;;5068303;28;20304;-57
2023/04/27 04:29:01;;;;;;;5.23;3.83;;;5.00;16.00;;;;;;5084451;28;20209;-58
2023/04/27 04:31:28;;;;;;;6.87;4.33;;;5.00;1.00;;;;;;5051239;28;20212;-58
2023/04/27 04:33:55;;;;;;;6.37;4.13;;;5.00;1.30;;;;;;5080787;28;20235;-58
2023/04/27 04:36:22;;;;;;;5.97;4.17;;;5.00;1.00;;;;;;5085358;28;20211;-58
2023/04/27 04:38:51;;;;;;;9.70;4.17;;;5.00;99.90;;;;;;5085767;28;20198;-57
2023/04/27 04:41:18;;;;;;;8.43;4.13;;;5.00;1.00;;;;;;5086391;28;20212;-58
2023/04/27 04:43:47;;;;;;;8.77;4.27;;;5.00;1.00;;;;;;5051861;28;20260;-58
2023/04/27 04:46:14;;;;;;;9.17;5.00;;;5.00;1.00;;;;;;5068266;28;20234;-57
2023/04/27 04:48:41;;;;;;;8.83;4.17;;;5.00;34.10;;;;;;5082334;28;20200;-58
2023/04/27 04:51:07;;;;;;;5.77;3.73;;;5.10;1.00;;;;;;5085599;28;20269;-58
2023/04/27 04:53:34;;;;;;;9.57;4.13;;;5.00;1.00;;;;;;5067990;28;20294;-58
2023/04/27 04:56:09;;;;;;;6.27;4.63;;;5.00;1.00;;;;;;5084354;28;20631;-58
2023/04/27 04:58:35;;;;;;;6.83;4.33;;;5.00;1.00;;;;;;5036098;28;20199;-58
2023/04/27 05:01:04;;;;;;;7.70;4.40;;;5.10;1.00;;;;;;5084562;28;20616;-58
2023/04/27 05:03:31;;;;;;;9.73;4.27;;;5.00;1.00;;;;;;5066976;28;20922;-58
2023/04/27 05:05:59;;;;;;;9.27;4.40;;;5.00;1.00;;;;;;5067067;28;20202;-62
2023/04/27 05:08:26;;;;;;;6.23;4.37;;;5.10;1.00;;;;;;5066281;28;20203;-58
2023/04/27 05:10:53;;;;;;;7.03;4.00;;;5.00;1.00;;;;;;5081351;28;20291;-58
2023/04/27 05:13:20;;;;;;;6.30;4.70;;;5.00;1.00;;;;;;5063622;28;20557;-58
2023/04/27 05:15:47;;;;;;;5.90;4.23;;;5.00;1.00;;;;;;5081671;28;20682;-58
2023/04/27 05:18:14;;;;;;;9.53;4.77;;;5.10;1.00;;;;;;5065176;28;20227;-58
2023/04/27 05:20:41;;;;;;;11.43;4.83;;;5.20;1.00;;;;;;5047317;28;20196;-59
2023/04/27 05:23:08;;;;;;;6.77;3.90;;;5.00;1.00;;;;;;5063290;28;20291;-59
2023/04/27 05:25:40;;;;;;;6.27;4.03;;;5.10;1.00;;;;;;5080574;28;20294;-58
2023/04/27 05:28:08;;;;;;;6.43;4.13;;;5.10;1.00;;;;;;5064362;28;20641;-61
2023/04/27 05:30:35;;;;;;;7.43;3.67;;;5.10;1.00;;;;;;5062066;28;20211;-58
2023/04/27 05:33:03;;;;;;;7.20;4.40;;;5.10;1.00;;;;;;5081371;28;20658;-61
2023/04/27 05:35:31;;;;;;;10.93;4.90;;;5.00;1.00;;;;;;5081660;28;20301;-59
2023/04/27 05:37:58;;;;;;;8.37;4.37;;;5.00;1.00;;;;;;5080220;28;20230;-58
2023/04/27 05:40:25;;;;;;;8.23;4.13;;;5.10;1.00;;;;;;5062800;28;20227;-58
2023/04/27 05:42:52;;;;;;;7.43;5.57;;;5.20;1.00;;;;;;5081789;28;20297;-58
2023/04/27 05:45:20;;;;;;;6.67;4.40;;;5.30;99.90;;;;;;5062672;28;20210;-58
2023/04/27 05:47:47;;;;;;;8.57;4.30;;;5.20;99.90;;;;;;5082049;28;20217;-58
2023/04/27 05:50:14;;;;;;;6.67;4.43;;;5.30;1.00;;;;;;5046962;28;20228;-58
2023/04/27 05:52:41;;;;;;;6.87;4.40;;;5.30;99.90;;;;;;5082318;28;20595;-58
2023/04/27 05:55:08;;;;;;;6.57;4.10;;;5.30;99.90;;;;;;5080142;28;20358;-59
2023/04/27 05:57:35;;;;;;;7.17;3.63;;;5.50;99.90;;;;;;5081673;28;20245;-59
2023/04/27 06:00:07;;;;;;;8.70;4.73;;;5.60;99.90;;;;;;5063474;28;20340;-59
2023/04/27 06:02:34;;;;;;;7.27;4.20;;;5.70;99.90;;;;;;5072448;28;20241;-59
2023/04/27 06:05:02;;;;;;;7.03;4.87;;;5.90;99.90;;;;;;5081148;28;20247;-59
2023/04/27 06:07:29;;;;;;;10.17;4.67;;;6.00;99.90;;;;;;5081366;28;20227;-59
2023/04/27 06:09:56;;;;;;;6.40;4.07;;;6.00;1.00;;;;;;5080015;28;20203;-59
2023/04/27 06:12:23;;;;;;;6.93;4.83;;;6.00;1.00;;;;;;5081189;28;20304;-59
2023/04/27 06:14:50;;;;;;;6.33;4.50;;;6.20;1.00;;;;;;5079936;28;20257;-62
2023/04/27 06:17:17;;;;;;;7.33;5.03;;;6.30;1.00;;;;;;5063317;28;20268;-59
2023/04/27 06:19:44;;;;;;;6.23;4.33;;;6.40;1.00;;;;;;5080145;28;20263;-60
2023/04/27 06:22:11;;;;;;;8.47;4.40;;;6.50;1.00;;;;;;5063923;28;20280;-64
2023/04/27 06:24:38;;;;;;;6.87;3.90;;;6.70;1.00;;;;;;5062153;28;20238;-59
2023/04/27 06:27:05;;;;;;;7.83;4.27;;;6.80;1.00;;;;;;5062832;28;20296;-60
2023/04/27 06:29:32;;;;;;;9.20;4.00;;;6.90;1.00;;;;;;5080842;28;20653;-59
2023/04/27 06:31:59;;;;;;;8.83;4.40;;;7.10;1.00;;;;;;5080978;28;20199;-60
2023/04/27 06:34:26;;;;;;;5.00;3.57;;;7.20;1.00;;;;;;5063228;28;20326;-59
2023/04/27 06:36:53;;;;;;;6.60;3.70;;;7.40;1.00;;;;;;5080883;28;20210;-61
2023/04/27 06:39:20;;;;;;;5.93;3.90;;;7.50;1.00;;;;;;5062726;28;20612;-59
2023/04/27 06:41:46;;;;;;;6.73;3.63;;;7.50;1.00;;;;;;5062378;28;20205;-59
2023/04/27 06:44:13;;;;;;;6.83;3.70;;;7.70;1.00;;;;;;5061237;28;20633;-61
2023/04/27 06:46:40;;;;;;;8.63;3.80;;;7.70;1.00;;;;;;5075774;28;20212;-59
2023/04/27 06:49:07;;;;;;;5.60;3.30;;;8.00;1.00;;;;;;5080229;28;20217;-59
2023/04/27 06:51:34;;;;;;;6.33;3.23;;;8.20;1.00;;;;;;5062641;28;20205;-59
2023/04/27 06:54:02;;;;;;;7.00;3.83;;;8.30;1.00;;;;;;5078749;28;20613;-59
2023/04/27 06:56:29;;;;;;;5.07;3.03;;;8.30;1.00;;;;;;5063081;28;20737;-59
2023/04/27 06:58:56;;;;;;;5.57;3.23;;;8.40;1.00;;;;;;5078945;28;20255;-60
2023/04/27 07:01:22;;;;;;;4.17;3.23;;;8.50;1.00;;;;;;5080483;28;20203;-62
2023/04/27 07:03:50;;;;;;;5.40;2.93;;;8.80;1.00;;;;;;5063116;28;20248;-60
2023/04/27 07:06:17;;;;;;;5.43;2.93;;;8.90;1.00;;;;;;5079086;28;20708;-59
2023/04/27 07:08:44;;;;;;;3.93;2.90;;;8.90;1.00;;;;;;5062564;28;20935;-59
2023/04/27 07:11:11;;;;;;;5.67;3.10;;;9.00;1.00;;;;;;5079792;28;20197;-59
2023/04/27 07:13:38;;;;;;;7.03;3.67;;;9.30;1.00;;;;;;5063371;28;20209;-59
2023/04/27 07:16:05;;;;;;;5.93;3.10;;;9.50;1.00;;;;;;5074734;28;20279;-59
2023/04/27 07:18:33;;;;;;;6.53;3.40;;;9.60;1.00;;;;;;5062206;28;20237;-59
2023/04/27 07:21:00;;;;;;;5.70;3.00;;;9.70;1.00;;;;;;5061455;28;20232;-58
2023/04/27 07:23:27;;;;;;;8.33;3.70;;;9.80;1.00;;;;;;5061390;28;20281;-59
2023/04/27 07:25:53;;;;;;;6.43;4.00;;;9.90;1.00;;;;;;5075268;28;20242;-59
2023/04/27 07:28:20;;;;;;;5.03;3.47;;;10.00;1.00;;;;;;5062222;28;20242;-58
2023/04/27 07:30:47;;;;;;;6.03;3.37;;;10.30;1.00;;;;;;5078580;28;20203;-58
2023/04/27 07:33:14;;;;;;;7.33;3.43;;;10.30;1.00;;;;;;5078960;28;20623;-58
2023/04/27 07:35:41;;;;;;;4.47;3.33;;;10.20;1.00;;;;;;5078481;28;20219;-60
2023/04/27 07:38:08;;;;;;;5.23;3.10;;;10.30;1.00;;;;;;5080208;28;20267;-58
2023/04/27 07:40:35;;;;;;;4.90;3.77;;;10.50;1.00;;;;;;5079656;28;20233;-60
2023/04/27 07:43:02;;;;;;;6.13;3.43;;;10.50;1.00;;;;;;5080107;28;20648;-57
2023/04/27 07:45:32;;;;;;;8.33;4.03;;;10.20;1.00;;;;;;5061234;28;20221;-58
2023/04/27 07:48:00;;;;;;;5.03;3.13;;;10.30;1.00;;;;;;5062172;28;20207;-58
2023/04/27 07:50:28;;;;;;;4.10;3.13;;;10.70;1.00;;;;;;5079759;28;20208;-60
2023/04/27 07:52:56;;;;;;;3.93;2.83;;;10.30;1.00;;;;;;5078092;28;20640;-58
2023/04/27 07:55:23;;;;;;;5.17;3.17;;;10.40;1.00;;;;;;5079480;28;20786;-58
2023/04/27 07:57:56;;;;;;;6.47;3.20;;;10.30;1.00;;;;;;5062776;28;20210;-58
2023/04/27 08:00:24;;;;;;;6.00;2.77;;;10.50;1.00;;;;;;5079570;28;20237;-58
2023/04/27 08:02:54;;;;;;;8.47;3.97;;;10.60;1.00;;;;;;5062616;28;20349;-58
2023/04/27 08:05:22;;;;;;;3.10;2.37;;;10.70;1.00;;;;;;5079993;28;20203;-61
2023/04/27 08:07:52;;;;;;;6.93;3.20;;;10.50;1.00;;;;;;5078931;28;20289;-59
2023/04/27 08:10:20;;;;;;;7.00;3.20;;;10.50;1.00;;;;;;5079286;28;20235;-58
2023/04/27 08:12:47;;;;;;;6.70;2.87;;;10.50;1.00;;;;;;5062574;28;20258;-58
2023/04/27 08:15:14;;;;;;;5.40;3.30;;;10.60;1.00;;;;;;5078986;28;20217;-58
2023/04/27 08:17:41;;;;;;;5.73;3.20;;;10.50;1.00;;;;;;5074742;28;20893;-58
2023/04/27 08:20:10;;;;;;;5.17;3.30;;;10.50;1.00;;;;;;5079212;28;20224;-58
2023/04/27 08:22:39;;;;;;;5.10;3.27;;;10.50;1.00;;;;;;5078859;28;20285;-58
2023/04/27 08:25:07;;;;;;;5.73;3.13;;;10.40;1.00;;;;;;5060379;28;20297;-59
2023/04/27 08:27:38;;;;;;;6.00;3.20;;;10.70;1.00;;;;;;5078708;28;20232;-58
2023/04/27 08:30:07;;;;;;;6.90;3.20;;;10.60;1.00;;;;;;5060205;28;20573;-60
2023/04/27 08:32:34;;;;;;;6.40;3.60;;;10.70;1.00;;;;;;5044386;28;20214;-59
2023/04/27 08:35:01;;;;;;;5.40;3.23;;;11.00;1.00;;;;;;5078784;28;20312;-58
2023/04/27 08:37:28;;;;;;;7.53;3.40;;;11.10;1.00;;;;;;5079175;28;20217;-61
2023/04/27 08:39:55;;;;;;;5.23;2.90;;;11.20;1.00;;;;;;5078620;28;20209;-58
2023/04/27 08:42:21;;;;;;;6.00;3.03;;;11.70;1.00;;;;;;5077669;28;21037;-62
2023/04/27 08:44:48;;;;;;;5.30;3.00;;;12.10;1.00;;;;;;5080040;28;20201;-60
2023/04/27 08:47:15;;;;;;;5.83;3.30;;;12.30;1.00;;;;;;5066319;28;20238;-58
2023/04/27 08:49:42;;;;;;;5.43;2.83;;;11.70;1.00;;;;;;5081118;28;20202;-59
2023/04/27 08:52:11;;;;;;;6.77;3.40;;;11.50;1.00;;;;;;5065197;28;20217;-59
2023/04/27 08:54:38;;;;;;;5.50;3.60;;;11.50;1.00;;;;;;5063841;28;20214;-59
2023/04/27 08:57:13;;;;;;;5.70;3.13;;;11.60;1.00;;;;;;5083246;28;20285;-59
2023/04/27 08:59:40;;;;;;;4.50;2.73;;;11.50;1.00;;;;;;5063957;28;20246;-59
2023/04/27 09:02:20;;;;;;;6.63;3.30;;;11.80;1.00;;;;;;5065102;28;20230;-59
2023/04/27 09:04:47;;;;;;;7.33;3.33;;;11.80;1.00;;;;;;5071211;28;20355;-58
2023/04/27 09:07:16;;;;;;;4.40;3.50;;;12.00;1.00;;;;;;5083061;28;20210;-59
2023/04/27 09:09:44;;;;;;;7.63;3.40;;;12.30;1.00;;;;;;5064100;28;20203;-61
2023/04/27 09:12:15;;;;;;;6.80;3.30;;;12.50;1.00;;;;;;5065852;28;20202;-58
2023/04/27 09:14:42;;;;;;;5.70;3.40;;;12.50;1.00;;;;;;5081666;28;20290;-58
2023/04/27 09:17:09;;;;;;;5.67;3.63;;;12.60;1.00;;;;;;5071966;28;20205;-59
2023/04/27 09:19:36;;;;;;;6.50;3.67;;;12.80;1.00;;;;;;5071654;28;20231;-59
2023/04/27 09:22:09;;;;;;;5.63;3.77;;;12.30;1.00;;;;;;5082168;28;20297;-62
2023/04/27 09:24:37;;;;;;;4.40;3.67;;;12.20;1.00;;;;;;5081571;28;20242;-59
2023/04/27 09:27:07;;;;;;;5.33;3.10;;;12.90;1.00;;;;;;5082005;28;20207;-59
2023/04/27 09:29:36;;;;;;;4.50;2.70;;;12.80;1.00;;;;;;5081498;28;20294;-59
2023/04/27 09:32:19;;;;;;;5.20;3.57;;;12.80;1.00;;;;;;5064342;28;20580;-59
2023/04/27 09:34:46;;;;;;;9.17;3.13;;;12.50;1.00;;;;;;5063501;28;20202;-59
2023/04/27 09:37:13;;;;;;;6.40;3.40;;;12.90;1.00;;;;;;5063499;28;20236;-59
2023/04/27 09:39:41;;;;;;;5.13;3.20;;;12.80;1.00;;;;;;5064266;28;20655;-59
2023/04/27 09:42:10;;;;;;;5.77;3.30;;;12.60;1.00;;;;;;5082193;28;20714;-58
2023/04/27 09:44:36;;;;;;;5.57;3.23;;;12.40;1.00;;;;;;5081186;28;20639;-59
2023/04/27 09:47:04;;;;;;;5.07;3.07;;;12.50;1.00;;;;;;5081788;28;20697;-59
2023/04/27 09:49:33;;;;;;;4.33;2.90;;;12.80;1.00;;;;;;5081735;28;20289;-59
2023/04/27 09:52:01;;;;;;;8.10;3.73;;;13.00;1.00;;;;;;5081822;28;21121;-59
2023/04/27 09:54:30;;;;;;;4.67;3.27;;;12.90;1.00;;;;;;5063725;28;20206;-59
2023/04/27 09:56:57;;;;;;;7.17;3.50;;;12.90;1.00;;;;;;5081283;28;20302;-60
2023/04/27 09:59:46;;;;;;;4.23;3.33;;;12.90;1.00;;;;;;5063920;28;20290;-59
2023/04/27 10:02:16;;;;;;;4.73;2.97;;;12.80;99.90;;;;;;5082176;28;20210;-59
2023/04/27 10:05:26;;;;;;;4.93;3.33;;;13.00;99.90;;;;;;5081092;28;20248;-59
2023/04/27 10:07:53;;;;;;;4.70;3.40;;;13.20;99.90;;;;;;5081381;28;20206;-59
2023/04/27 10:10:21;;;;;;;5.30;3.17;;;13.40;99.90;;;;;;5081501;28;20231;-59
2023/04/27 10:12:57;;;;;;;4.30;3.07;;;13.60;1.00;;;;;;5063427;28;20212;-59
2023/04/27 10:15:28;;;;;;;6.50;3.33;;;13.60;99.90;;;;;;5063005;28;20262;-59
2023/04/27 10:17:57;;;;;;;8.00;3.37;;;13.30;99.90;;;;;;5080220;28;20195;-58
2023/04/27 10:20:34;;;;;;;4.33;3.10;;;13.30;99.90;;;;;;5063898;28;20202;-59
2023/04/27 10:23:02;;;;;;;5.00;3.40;;;13.30;99.90;;;;;;5068574;28;20225;-58
2023/04/27 10:25:37;;;;;;;4.80;3.13;;;13.10;99.90;;;;;;5078813;28;20310;-58
2023/04/27 10:28:06;;;;;;;5.13;3.20;;;13.20;99.90;;;;;;5062702;28;20674;-58
2023/04/27 10:30:36;;;;;;;8.00;4.00;;;12.80;99.90;;;;;;5079138;28;20274;-59
2023/04/27 10:33:08;;;;;;;5.57;3.60;;;13.10;99.90;;;;;;5081131;28;20280;-58
2023/04/27 10:35:41;;;;;;;5.90;3.17;;;13.60;99.90;;;;;;5076119;28;20677;-58
2023/04/27 10:38:10;;;;;;;6.43;3.60;;;13.30;99.90;;;;;;5078641;28;20286;-58
2023/04/27 10:40:37;;;;;;;5.23;3.33;;;13.60;99.90;;;;;;5077995;28;20569;-58
2023/04/27 10:43:12;;;;;;;3.57;3.10;;;13.60;99.90;;;;;;5061308;28;20673;-58
2023/04/27 10:45:41;;;;;;;5.17;3.57;;;13.50;99.90;;;;;;5045381;28;20211;-59
2023/04/27 10:48:11;;;;;;;3.83;3.43;;;13.70;99.90;;;;;;5081341;28;20631;-58
2023/04/27 10:50:39;;;;;;;4.03;3.27;;;13.50;99.90;;;;;;5079341;28;20680;-59
2023/04/27 10:53:07;;;;;;;5.97;3.40;;;13.20;99.90;;;;;;5079791;28;20730;-58
2023/04/27 10:55:34;;;;;;;6.13;3.70;;;13.50;99.90;;;;;;5080638;28;20244;-58
2023/04/27 10:58:03;;;;;;;5.13;3.20;;;14.10;99.90;;;;;;5063551;28;20226;-58
2023/04/27 11:00:37;;;;;;;5.10;3.70;;;14.00;99.90;;;;;;5079230;28;20243;-58
2023/04/27 11:03:13;;;;;;;5.20;3.73;;;13.90;99.90;;;;;;5079946;28;20290;-59
2023/04/27 11:05:41;;;;;;;4.03;3.50;;;13.90;99.90;;;;;;5041001;28;20208;-58
2023/04/27 11:08:11;;;;;;;4.43;3.73;;;13.80;99.90;;;;;;5037466;28;20212;-58
2023/04/27 11:10:40;;;;;;;5.60;3.50;;;13.90;99.90;;;;;;5038290;28;20206;-59
2023/04/27 11:13:12;;;;;;;5.13;3.10;;;14.10;99.90;;;;;;5039871;28;20226;-58
2023/04/27 11:15:49;;;;;;;5.70;3.60;;;13.60;99.90;;;;;;5038545;28;20637;-58
2023/04/27 11:18:18;;;;;;;7.53;4.27;;;13.70;99.90;;;;;;5037696;28;20750;-58
2023/04/27 11:20:48;;;;;;;4.10;3.67;;;13.90;99.90;;;;;;5038964;28;20205;-58
2023/04/27 11:23:40;;;;;;;3.83;3.40;;;14.20;99.90;;;;;;5039591;28;20201;-58
2023/04/27 11:26:15;;;;;;;7.10;3.70;;;14.40;99.90;;;;;;5039491;28;20205;-59
2023/04/27 11:29:12;;;;;;;6.10;3.73;;;14.20;99.90;;;;;;5039981;28;20254;-60
2023/04/27 11:31:49;;;;;;;7.60;4.03;;;14.30;99.90;;;;;;5045577;28;20212;-58
2023/04/27 11:34:18;;;;;;;5.50;4.03;;;14.80;99.90;;;;;;5039045;28;20214;-58
2023/04/27 11:36:56;;;;;;;6.97;4.00;;;15.10;99.90;;;;;;5039193;28;20249;-58
2023/04/27 11:39:44;;;;;;;5.97;4.43;;;15.40;99.90;;;;;;5039666;28;20205;-59
2023/04/27 11:42:27;;;;;;;7.27;4.13;;;15.10;99.90;;;;;;5039275;28;20293;-58
2023/04/27 11:45:06;;;;;;;4.50;3.80;;;15.30;99.90;;;;;;5043951;28;20221;-61
2023/04/27 11:47:34;;;;;;;5.70;3.70;;;15.70;99.90;;;;;;5039018;28;20293;-61
2023/04/27 11:50:05;;;;;;;4.33;3.40;;;16.20;99.90;;;;;;5037712;28;20327;-59
2023/04/27 11:52:37;;;;;;;6.60;4.10;;;16.10;99.90;;;;;;5039815;28;20203;-60
2023/04/27 11:55:05;;;;;;;7.73;3.80;;;16.30;99.90;;;;;;5038995;28;20325;-60
2023/04/27 11:57:34;;;;;;;6.83;4.80;;;16.50;99.90;;;;;;5040053;28;20249;-59
2023/04/27 12:00:09;;;;;;;5.40;3.67;;;16.60;99.90;;;;;;5038106;28;20553;-59
2023/04/27 12:02:37;;;;;;;7.00;3.70;;;16.70;99.90;;;;;;5038942;28;20580;-58
2023/04/27 12:05:06;;;;;;;8.13;4.33;;;17.30;99.90;;;;;;5069158;28;20608;-60
2023/04/27 12:07:33;;;;;;;6.77;3.90;;;16.80;99.90;;;;;;5060926;28;20198;-60
2023/04/27 12:10:00;;;;;;;5.57;4.13;;;16.40;99.90;;;;;;5077910;28;20687;-59
2023/04/27 12:12:27;;;;;;;6.50;3.97;;;16.70;99.90;;;;;;5079103;28;20256;-58
2023/04/27 12:14:54;;;;;;;6.37;3.87;;;16.70;99.90;;;;;;5075974;28;20251;-61
2023/04/27 12:17:21;;;;;;;5.30;4.00;;;16.80;99.90;;;;;;5061029;28;20306;-58
2023/04/27 12:19:48;;;;;;;6.17;3.97;;;17.10;99.90;;;;;;5063098;28;20230;-59
2023/04/27 12:22:15;;;;;;;5.33;4.10;;;17.00;99.90;;;;;;5082545;28;20676;-58
2023/04/27 12:24:42;;;;;;;5.83;4.23;;;16.80;99.90;;;;;;5082391;28;20209;-59
2023/04/27 12:27:09;;;;;;;6.83;4.23;;;16.40;99.90;;;;;;5065193;28;20576;-59
2023/04/27 12:29:36;;;;;;;7.70;4.13;;;17.00;99.90;;;;;;5064757;28;20775;-58
2023/04/27 12:32:03;;;;;;;4.80;4.30;;;17.00;99.90;;;;;;5082961;28;20340;-59
2023/04/27 12:34:30;;;;;;;5.83;4.00;;;17.30;99.90;;;;;;5065301;28;20286;-61
2023/04/27 12:36:57;;;;;;;7.83;4.50;;;17.20;99.90;;;;;;5082251;28;20223;-61
2023/04/27 12:39:24;;;;;;;5.10;4.20;;;17.00;99.90;;;;;;5083228;28;20214;-60
2023/04/27 12:41:52;;;;;;;5.80;4.47;;;17.30;99.90;;;;;;5082759;28;20232;-59
2023/04/27 12:44:20;;;;;;;7.50;4.60;;;18.10;99.90;;;;;;5082761;28;20322;-59
2023/04/27 12:46:47;;;;;;;6.07;4.07;;;17.60;99.90;;;;;;5078862;28;20679;-59
2023/04/27 12:49:15;;;;;;;5.30;4.30;;;18.00;99.90;;;;;;5065040;28;20314;-59
2023/04/27 12:51:42;;;;;;;6.03;4.37;;;18.10;99.90;;;;;;5064419;28;20208;-61
2023/04/27 12:54:10;;;;;;;6.47;4.60;;;17.30;99.90;;;;;;5081202;28;20774;-59
2023/04/27 12:56:38;;;;;;;5.80;4.40;;;17.60;99.90;;;;;;5064356;28;20248;-59
2023/04/27 12:59:05;;;;;;;5.60;4.10;;;18.00;99.90;;;;;;5081363;28;20662;-62
2023/04/27 13:01:32;;;;;;;5.63;4.50;;;18.30;99.90;;;;;;5063967;28;20260;-59
2023/04/27 13:04:01;;;;;;;4.23;3.80;;;17.50;99.90;;;;;;5065059;28;20562;-59